R992683 KACY-KDOV
Flight info
| Callsign | R992683 |
|---|---|
| Flight time | 0h 23m |
| Altitude | 1500 |
| Route | KACY-VFR-KDOV |
| Aircraft | H60/L-G/C |
Departure
| Time | 2026-04-11 11:31 |
|---|---|
| Airport | Atlantic City International Airport (KACY) |
Arrival
| Time | 2026-04-11 11:54 |
|---|---|
| Airport | Dover Civil Air Terminal/Dover Air Force Base (KDOV) |
| Time | Latitude | Longitude | Altitude | Speed | Heading |
|---|---|---|---|---|---|
| 2026-04-11 11:00 | 39.44973 | -74.56445 | 68 ft | 0 kts | 204° |
| 2026-04-11 11:16 | 39.44971 | -74.56447 | 63 ft | 1 kts | 207° |
| 2026-04-11 11:16 | 39.44956 | -74.56441 | 66 ft | 10 kts | 281° |
| 2026-04-11 11:16 | 39.44971 | -74.56464 | 73 ft | 6 kts | 359° |
| 2026-04-11 11:16 | 39.44972 | -74.56469 | 68 ft | 0 kts | 9° |
| 2026-04-11 11:28 | 39.44996 | -74.56432 | 78 ft | 8 kts | 44° |
| 2026-04-11 11:28 | 39.45019 | -74.56382 | 72 ft | 6 kts | 113° |
| 2026-04-11 11:29 | 39.44920 | -74.56224 | 69 ft | 5 kts | 70° |
| 2026-04-11 11:29 | 39.44911 | -74.56197 | 93 ft | 1 kts | 37° |
| 2026-04-11 11:29 | 39.45001 | -74.56123 | 145 ft | 23 kts | 21° |
| 2026-04-11 11:30 | 39.45154 | -74.56023 | 264 ft | 28 kts | 317° |
| 2026-04-11 11:30 | 39.45375 | -74.56290 | 415 ft | 68 kts | 309° |
| 2026-04-11 11:30 | 39.45656 | -74.57025 | 593 ft | 110 kts | 299° |
| 2026-04-11 11:30 | 39.46032 | -74.58017 | 504 ft | 130 kts | 296° |
| 2026-04-11 11:31 | 39.46400 | -74.59064 | 693 ft | 128 kts | 295° |
| 2026-04-11 11:31 | 39.46772 | -74.60105 | 1004 ft | 128 kts | 295° |
| 2026-04-11 11:31 | 39.47145 | -74.61148 | 1275 ft | 127 kts | 295° |
| 2026-04-11 11:31 | 39.47516 | -74.62181 | 1227 ft | 126 kts | 295° |
| 2026-04-11 11:32 | 39.47826 | -74.63230 | 1246 ft | 122 kts | 287° |
| 2026-04-11 11:32 | 39.47721 | -74.64293 | 1232 ft | 124 kts | 252° |
| 2026-04-11 11:32 | 39.47109 | -74.65043 | 1249 ft | 120 kts | 224° |
| 2026-04-11 11:32 | 39.46462 | -74.65814 | 1247 ft | 125 kts | 225° |
| 2026-04-11 11:33 | 39.45903 | -74.66666 | 1239 ft | 131 kts | 231° |
| 2026-04-11 11:33 | 39.45325 | -74.67539 | 1244 ft | 127 kts | 231° |
| 2026-04-11 11:33 | 39.44756 | -74.68398 | 1244 ft | 127 kts | 231° |
| 2026-04-11 11:33 | 39.44180 | -74.69265 | 1243 ft | 127 kts | 231° |
| 2026-04-11 11:34 | 39.43604 | -74.70135 | 1249 ft | 127 kts | 231° |
| 2026-04-11 11:34 | 39.43029 | -74.71002 | 1250 ft | 127 kts | 231° |
| 2026-04-11 11:34 | 39.42455 | -74.71869 | 1243 ft | 127 kts | 231° |
| 2026-04-11 11:34 | 39.41878 | -74.72738 | 1244 ft | 126 kts | 231° |
| 2026-04-11 11:35 | 39.41303 | -74.73606 | 1244 ft | 127 kts | 231° |
| 2026-04-11 11:35 | 39.40735 | -74.74462 | 1250 ft | 127 kts | 231° |
| 2026-04-11 11:35 | 39.40160 | -74.75328 | 1244 ft | 127 kts | 231° |
| 2026-04-11 11:35 | 39.39586 | -74.76196 | 1243 ft | 126 kts | 231° |
| 2026-04-11 11:36 | 39.39011 | -74.77064 | 1248 ft | 126 kts | 231° |
| 2026-04-11 11:36 | 39.38436 | -74.77932 | 1249 ft | 127 kts | 231° |
| 2026-04-11 11:36 | 39.37861 | -74.78799 | 1251 ft | 127 kts | 231° |
| 2026-04-11 11:36 | 39.37286 | -74.79669 | 1246 ft | 127 kts | 231° |
| 2026-04-11 11:37 | 39.36712 | -74.80537 | 1249 ft | 127 kts | 231° |
| 2026-04-11 11:37 | 39.36145 | -74.81393 | 1250 ft | 127 kts | 231° |
| 2026-04-11 11:37 | 39.35570 | -74.82263 | 1249 ft | 127 kts | 231° |
| 2026-04-11 11:37 | 39.34994 | -74.83132 | 1250 ft | 126 kts | 231° |
| 2026-04-11 11:38 | 39.34419 | -74.84001 | 1250 ft | 127 kts | 231° |
| 2026-04-11 11:38 | 39.33845 | -74.84868 | 1244 ft | 127 kts | 231° |
| 2026-04-11 11:38 | 39.33272 | -74.85736 | 1250 ft | 127 kts | 231° |
| 2026-04-11 11:38 | 39.32704 | -74.86595 | 1248 ft | 127 kts | 231° |
| 2026-04-11 11:39 | 39.32131 | -74.87462 | 1252 ft | 127 kts | 231° |
| 2026-04-11 11:39 | 39.31556 | -74.88331 | 1244 ft | 127 kts | 231° |
| 2026-04-11 11:39 | 39.30982 | -74.89198 | 1247 ft | 127 kts | 231° |
| 2026-04-11 11:39 | 39.30406 | -74.90069 | 1246 ft | 127 kts | 231° |
| 2026-04-11 11:40 | 39.29831 | -74.90938 | 1245 ft | 127 kts | 231° |
| 2026-04-11 11:40 | 39.29266 | -74.91794 | 1244 ft | 127 kts | 231° |
| 2026-04-11 11:40 | 39.28685 | -74.92672 | 1250 ft | 127 kts | 231° |
| 2026-04-11 11:40 | 39.28118 | -74.93529 | 1244 ft | 127 kts | 231° |
| 2026-04-11 11:41 | 39.27544 | -74.94398 | 1247 ft | 127 kts | 231° |
| 2026-04-11 11:41 | 39.26970 | -74.95268 | 1246 ft | 127 kts | 231° |
| 2026-04-11 11:41 | 39.26398 | -74.96134 | 1248 ft | 126 kts | 231° |
| 2026-04-11 11:41 | 39.25824 | -74.97002 | 1250 ft | 127 kts | 231° |
| 2026-04-11 11:42 | 39.25251 | -74.97868 | 1245 ft | 127 kts | 231° |
| 2026-04-11 11:42 | 39.24678 | -74.98735 | 1247 ft | 127 kts | 231° |
| 2026-04-11 11:42 | 39.24105 | -74.99601 | 1249 ft | 127 kts | 231° |
| 2026-04-11 11:42 | 39.23532 | -75.00469 | 1251 ft | 127 kts | 231° |
| 2026-04-11 11:43 | 39.22967 | -75.01326 | 1246 ft | 127 kts | 231° |
| 2026-04-11 11:43 | 39.22388 | -75.02204 | 1251 ft | 127 kts | 231° |
| 2026-04-11 11:43 | 39.21823 | -75.03060 | 1245 ft | 127 kts | 231° |
| 2026-04-11 11:43 | 39.21253 | -75.03933 | 1254 ft | 121 kts | 232° |
| 2026-04-11 11:44 | 39.20769 | -75.04783 | 1244 ft | 126 kts | 234° |
| 2026-04-11 11:44 | 39.20246 | -75.05783 | 1243 ft | 139 kts | 240° |
| 2026-04-11 11:44 | 39.19729 | -75.06893 | 1240 ft | 148 kts | 240° |
| 2026-04-11 11:44 | 39.19185 | -75.08047 | 1246 ft | 152 kts | 240° |
| 2026-04-11 11:45 | 39.18633 | -75.09221 | 1240 ft | 154 kts | 240° |
| 2026-04-11 11:45 | 39.18074 | -75.10407 | 1247 ft | 155 kts | 240° |
| 2026-04-11 11:45 | 39.17512 | -75.11600 | 1248 ft | 156 kts | 240° |
| 2026-04-11 11:45 | 39.16949 | -75.12796 | 1244 ft | 156 kts | 240° |
| 2026-04-11 11:46 | 39.16396 | -75.13973 | 1244 ft | 155 kts | 240° |
| 2026-04-11 11:46 | 39.15834 | -75.15167 | 1243 ft | 156 kts | 240° |
| 2026-04-11 11:46 | 39.15271 | -75.16361 | 1251 ft | 156 kts | 240° |
| 2026-04-11 11:46 | 39.14706 | -75.17561 | 1254 ft | 155 kts | 240° |
| 2026-04-11 11:47 | 39.14151 | -75.18742 | 1245 ft | 155 kts | 240° |
| 2026-04-11 11:47 | 39.13590 | -75.19937 | 1246 ft | 156 kts | 240° |
| 2026-04-11 11:47 | 39.13029 | -75.21130 | 1246 ft | 156 kts | 240° |
| 2026-04-11 11:47 | 39.12467 | -75.22325 | 1244 ft | 155 kts | 240° |
| 2026-04-11 11:48 | 39.11907 | -75.23517 | 1244 ft | 156 kts | 240° |
| 2026-04-11 11:48 | 39.11346 | -75.24710 | 1249 ft | 156 kts | 240° |
| 2026-04-11 11:48 | 39.10785 | -75.25905 | 1243 ft | 156 kts | 240° |
| 2026-04-11 11:48 | 39.10223 | -75.27100 | 1247 ft | 156 kts | 240° |
| 2026-04-11 11:49 | 39.09669 | -75.28279 | 1252 ft | 156 kts | 240° |
| 2026-04-11 11:49 | 39.09109 | -75.29473 | 1251 ft | 156 kts | 240° |
| 2026-04-11 11:49 | 39.08548 | -75.30668 | 1250 ft | 156 kts | 240° |
| 2026-04-11 11:49 | 39.08007 | -75.31833 | 1250 ft | 135 kts | 241° |
| 2026-04-11 11:50 | 39.07765 | -75.32886 | 1242 ft | 127 kts | 260° |
| 2026-04-11 11:50 | 39.07596 | -75.34019 | 1256 ft | 127 kts | 259° |
| 2026-04-11 11:50 | 39.07417 | -75.35245 | 1219 ft | 143 kts | 261° |
| 2026-04-11 11:50 | 39.07367 | -75.36391 | 1138 ft | 115 kts | 274° |
| 2026-04-11 11:51 | 39.07605 | -75.37350 | 980 ft | 113 kts | 294° |
| 2026-04-11 11:51 | 39.08041 | -75.38198 | 939 ft | 108 kts | 306° |
| 2026-04-11 11:51 | 39.08445 | -75.38885 | 1008 ft | 84 kts | 308° |
| 2026-04-11 11:51 | 39.08788 | -75.39449 | 986 ft | 79 kts | 310° |
| 2026-04-11 11:52 | 39.09159 | -75.40068 | 856 ft | 93 kts | 309° |
| 2026-04-11 11:52 | 39.09530 | -75.40729 | 782 ft | 88 kts | 306° |
| 2026-04-11 11:52 | 39.09881 | -75.41389 | 676 ft | 90 kts | 306° |
| 2026-04-11 11:52 | 39.10237 | -75.42037 | 641 ft | 86 kts | 307° |
| 2026-04-11 11:53 | 39.10537 | -75.42594 | 612 ft | 67 kts | 307° |
| 2026-04-11 11:53 | 39.10788 | -75.43049 | 525 ft | 66 kts | 308° |
| 2026-04-11 11:53 | 39.11103 | -75.43603 | 414 ft | 85 kts | 308° |
| 2026-04-11 11:53 | 39.11464 | -75.44228 | 297 ft | 88 kts | 308° |
| 2026-04-11 11:54 | 39.11806 | -75.44835 | 192 ft | 76 kts | 307° |
| 2026-04-11 11:54 | 39.12046 | -75.45276 | 100 ft | 46 kts | 309° |
| 2026-04-11 11:54 | 39.12204 | -75.45561 | 70 ft | 36 kts | 311° |
| 2026-04-11 11:54 | 39.12377 | -75.45871 | 76 ft | 50 kts | 313° |
| 2026-04-11 11:55 | 39.12545 | -75.46155 | 82 ft | 31 kts | 314° |
| 2026-04-11 11:55 | 39.12640 | -75.46353 | 84 ft | 21 kts | 317° |
| 2026-04-11 11:55 | 39.12679 | -75.46469 | 96 ft | 13 kts | 296° |
| 2026-04-11 11:55 | 39.12722 | -75.46629 | 110 ft | 21 kts | 273° |
| 2026-04-11 11:56 | 39.12673 | -75.46830 | 84 ft | 24 kts | 273° |
| 2026-04-11 11:56 | 39.12631 | -75.47024 | 71 ft | 18 kts | 285° |
| 2026-04-11 11:56 | 39.12622 | -75.47096 | 69 ft | 19 kts | 320° |
| 2026-04-11 11:56 | 39.12670 | -75.47178 | 59 ft | 3 kts | 325° |
| 2026-04-11 11:57 | 39.12709 | -75.47234 | 56 ft | 7 kts | 18° |
| 2026-04-11 11:57 | 39.12758 | -75.47206 | 42 ft | 7 kts | 40° |
| 2026-04-11 11:57 | 39.12766 | -75.47191 | 28 ft | 0 kts | 43° |